Ferndale, WA (98248)

7:29 PM PDT on September 02, 2015 (GMT -0700)
Ferndale | | Change Station
CLOSE
Current Station
Personal Weather Station
Location: Ferndale, WA
Elevation: 197 ft
Nearby Weather Stations

Elev 197 ft 48.86 °N, 122.60 °W | Updated 57 seconds ago

Overcast
Overcast
53.6 °F
Feels Like 53.6 °F
N
0.0
Wind Variable Wind from SSE
Gusts 1.0 mph

Today
High -- | Low -- °F
--% Chance of Precip.
Yesterday
High -- | Low -- °F
Precip. -- in
6:28 AM 7:50 PM
Waning Gibbous, 75% visible
Pressure 29.94 in
Visibility 10.0 miles
Clouds Scattered Clouds 6000 ft
Dew Point 50 °F
Humidity 89%
Rainfall 0.32 in
Snow Depth Not available.
UV 0 out of 12
Pollen .50 out of 12
Air Quality Not available.
Flu Activity Not available.
METAR KBLI 030153Z 10004KT 10SM SCT060 13/10 A2992 RMK AO2 RAE0054 SLP137 T01330100
Pressure 29.94 in
Visibility 10.0 miles
Clouds Scattered Clouds 6000 ft
Dew Point 50 °F
Humidity 89%
Rainfall 0.32 in
Snow Depth Not available.
UV 0 out of 12
Pollen .50 out of 12
Air Quality Not available.
Flu Activity Not available.
METAR KBLI 030153Z 10004KT 10SM SCT060 13/10 A2992 RMK AO2 RAE0054 SLP137 T01330100

10-Day Weather Forecast

×

Almanac

Astronomy

Sep. 02, 2015 Rise Set
Actual Time
Civil Twilight
Nautical Twilight
Astronomical Twilight
Moon
Length of Visible Light
Length of Day
Tomorrow will be .
, % of the Moon is Illuminated

Today's Extremes

State Highs State Lows

Community

WunderPhotos

Upload Photos

1,851,877 photos uploaded!

WunderBlogs® & News

Nearby

Air Quality

  Air Quality AQ Index Pollutant
Not available.

Snow Depth

Station Depth Elevation

Earthquake Activity

City Distance Mag. Time & Date
Minimum magnitude displayed is 2.5.

Coastal Water Temperatures

Place Temperature

Stations

Nearby Weather Stations

Station Location Temp. Windchill Dew Point Humidity Wind Precip. Elev Updated Type